createdAt,value
2022-08-03T00:01:42.696Z,27.63
2022-08-03T00:04:11.668Z,27.60
2022-08-03T00:06:39.279Z,27.55
2022-08-03T00:09:08.518Z,27.50
2022-08-03T00:11:36.696Z,27.48
2022-08-03T00:14:05.100Z,27.47
2022-08-03T00:16:32.548Z,27.45
2022-08-03T00:19:00.674Z,27.43
2022-08-03T00:21:28.705Z,27.39
2022-08-03T00:23:56.242Z,27.38
2022-08-03T00:26:25.044Z,27.34
2022-08-03T00:28:52.404Z,27.29
2022-08-03T00:31:33.930Z,27.24
2022-08-03T00:34:07.223Z,27.17
2022-08-03T00:36:34.539Z,27.16
2022-08-03T00:39:01.946Z,27.15
2022-08-03T00:41:30.738Z,27.11
2022-08-03T00:43:58.131Z,27.06
2022-08-03T00:46:25.427Z,27.01
2022-08-03T00:48:53.417Z,26.98
2022-08-03T00:51:22.288Z,26.95
2022-08-03T00:53:51.005Z,26.92
2022-08-03T00:56:18.933Z,26.90
2022-08-03T00:58:47.930Z,26.85
2022-08-03T01:01:15.727Z,26.83
2022-08-03T01:03:43.500Z,26.79
2022-08-03T01:06:19.341Z,26.72
2022-08-03T01:08:54.887Z,26.69
2022-08-03T01:11:34.744Z,26.63
2022-08-03T01:14:19.053Z,26.56
2022-08-03T01:16:57.563Z,26.53
2022-08-03T01:19:49.586Z,26.48
2022-08-03T01:22:52.203Z,26.44
2022-08-03T01:25:40.291Z,26.45
2022-08-03T01:28:39.060Z,26.42
2022-08-03T01:31:11.735Z,26.44
2022-08-03T01:33:47.075Z,26.45
2022-08-03T01:36:19.564Z,26.42
2022-08-03T01:38:54.091Z,26.39
2022-08-03T01:41:29.403Z,26.36
2022-08-03T01:44:29.641Z,26.35
2022-08-03T01:46:55.613Z,26.34
2022-08-03T01:49:25.689Z,26.32
2022-08-03T01:52:02.852Z,26.32
2022-08-03T01:54:36.243Z,26.28
2022-08-03T01:57:04.792Z,26.27
2022-08-03T01:59:36.329Z,26.22
2022-08-03T02:02:19.515Z,26.16
2022-08-03T02:04:58.233Z,26.08
2022-08-03T02:07:28.027Z,26.04
2022-08-03T02:09:58.473Z,26.01
2022-08-03T02:12:31.357Z,26.00
2022-08-03T02:15:02.020Z,25.97
2022-08-03T02:17:39.278Z,25.96
2022-08-03T02:20:12.404Z,25.91
2022-08-03T02:22:42.157Z,25.90
2022-08-03T02:25:12.711Z,25.89
2022-08-03T02:27:48.927Z,25.90
2022-08-03T02:30:16.862Z,25.90
2022-08-03T02:32:54.654Z,25.88
2022-08-03T02:35:25.939Z,25.88
2022-08-03T02:37:59.798Z,25.85
2022-08-03T02:40:30.834Z,25.84
2022-08-03T02:43:03.832Z,25.82
2022-08-03T02:45:36.579Z,25.81
2022-08-03T02:48:07.508Z,25.82
2022-08-03T02:50:36.930Z,25.79
2022-08-03T02:53:06.336Z,25.78
2022-08-03T02:55:36.233Z,25.76
2022-08-03T02:58:13.533Z,25.73
2022-08-03T03:00:44.109Z,25.72
2022-08-03T03:03:14.063Z,25.70
2022-08-03T03:05:54.804Z,25.68
2022-08-03T03:08:28.637Z,25.64
2022-08-03T03:10:59.658Z,25.60
2022-08-03T03:13:28.935Z,25.56
2022-08-03T03:16:03.869Z,25.53
2022-08-03T03:18:34.992Z,25.52
2022-08-03T03:21:04.558Z,25.49
2022-08-03T03:23:35.331Z,25.49
2022-08-03T03:26:03.793Z,25.49
2022-08-03T03:28:32.404Z,25.50
2022-08-03T03:31:00.976Z,25.49
2022-08-03T03:33:28.789Z,25.48
2022-08-03T03:35:58.898Z,25.46
2022-08-03T03:38:26.833Z,25.42
2022-08-03T03:40:55.022Z,25.38
2022-08-03T03:43:24.940Z,25.34
2022-08-03T03:45:53.765Z,25.33
2022-08-03T03:48:21.560Z,25.30
2022-08-03T03:50:50.694Z,25.26
2022-08-03T03:53:19.893Z,25.25
2022-08-03T03:55:59.111Z,25.27
2022-08-03T03:58:32.192Z,25.32
2022-08-03T04:01:00.398Z,25.32
2022-08-03T04:03:28.079Z,25.32
2022-08-03T04:06:14.137Z,25.31
2022-08-03T04:09:01.198Z,25.29
2022-08-03T04:11:38.377Z,25.23
2022-08-03T04:14:11.042Z,25.23
2022-08-03T04:16:45.102Z,25.22
2022-08-03T04:19:23.162Z,25.20
2022-08-03T04:21:57.675Z,25.19
2022-08-03T04:24:39.139Z,25.14
2022-08-03T04:27:11.511Z,25.18
2022-08-03T04:29:48.514Z,25.15
2022-08-03T04:32:18.192Z,25.14
2022-08-03T04:34:46.517Z,25.15
2022-08-03T04:37:26.457Z,25.13
2022-08-03T04:40:01.843Z,25.14
2022-08-03T04:42:33.338Z,25.13
2022-08-03T04:45:02.755Z,25.16
2022-08-03T04:47:33.859Z,25.14
2022-08-03T04:50:02.850Z,25.16
2022-08-03T04:52:31.401Z,25.17
2022-08-03T04:55:00.105Z,25.18
2022-08-03T04:57:27.489Z,25.19
2022-08-03T05:00:02.012Z,25.21
2022-08-03T05:02:31.270Z,25.23
2022-08-03T05:04:59.474Z,25.25
2022-08-03T05:07:35.643Z,25.23
2022-08-03T05:10:15.194Z,25.23
2022-08-03T05:12:45.873Z,25.19
2022-08-03T05:15:13.879Z,25.19
2022-08-03T05:17:41.376Z,25.22
2022-08-03T05:20:11.030Z,25.24
2022-08-03T05:22:38.517Z,25.27
2022-08-03T05:25:08.199Z,25.37
2022-08-03T05:27:36.146Z,25.45
2022-08-03T05:30:31.468Z,25.53
2022-08-03T05:32:51.798Z,25.58
2022-08-03T05:35:56.194Z,25.63
2022-08-03T05:38:06.946Z,25.66
2022-08-03T05:40:37.990Z,25.74
2022-08-03T05:43:06.934Z,25.80
2022-08-03T05:45:34.355Z,25.82
2022-08-03T05:48:01.672Z,25.84
2022-08-03T05:50:29.035Z,25.94
2022-08-03T05:52:57.924Z,26.04
2022-08-03T05:55:25.842Z,26.12
2022-08-03T05:57:55.182Z,26.18
2022-08-03T06:00:24.268Z,26.25
2022-08-03T06:02:53.145Z,26.34
2022-08-03T06:05:20.729Z,26.40
2022-08-03T06:07:48.117Z,26.41
2022-08-03T06:10:35.942Z,26.50
2022-08-03T06:13:04.489Z,26.59
2022-08-03T06:15:33.415Z,26.63
2022-08-03T06:18:02.221Z,26.74
2022-08-03T06:20:30.290Z,26.86
2022-08-03T06:23:01.065Z,26.94
2022-08-03T06:25:29.085Z,26.98
2022-08-03T06:27:56.922Z,27.03
2022-08-03T06:30:26.180Z,27.07
2022-08-03T06:32:53.596Z,27.17
2022-08-03T06:35:21.148Z,27.29
2022-08-03T06:37:50.967Z,27.41
2022-08-03T06:40:24.488Z,27.53
2022-08-03T06:42:52.017Z,27.66
2022-08-03T06:45:19.552Z,27.77
2022-08-03T06:47:59.490Z,27.84
2022-08-03T06:50:26.987Z,27.93
2022-08-03T06:52:54.390Z,27.99
2022-08-03T06:55:21.958Z,28.06
2022-08-03T06:57:49.482Z,28.10
2022-08-03T07:00:17.498Z,28.15
2022-08-03T07:02:45.040Z,28.25
2022-08-03T07:05:14.485Z,28.37
2022-08-03T07:07:42.187Z,28.52
2022-08-03T07:10:13.976Z,28.66
2022-08-03T07:12:52.715Z,28.79
2022-08-03T07:15:54.433Z,28.92
2022-08-03T07:18:11.624Z,29.04
2022-08-03T07:20:40.938Z,29.11
2022-08-03T07:23:25.886Z,29.19
2022-08-03T07:25:53.357Z,29.36
2022-08-03T07:28:21.057Z,29.36
2022-08-03T07:30:48.535Z,29.35
2022-08-03T07:33:15.895Z,29.26
2022-08-03T07:35:44.631Z,29.35
2022-08-03T07:38:11.975Z,29.50
2022-08-03T07:40:44.429Z,29.50
2022-08-03T07:43:13.381Z,29.63
2022-08-03T07:45:40.766Z,29.80
2022-08-03T07:48:12.095Z,30.02
2022-08-03T07:50:40.663Z,30.24
2022-08-03T07:53:09.429Z,30.40
2022-08-03T07:55:36.882Z,30.54
2022-08-03T07:58:06.904Z,30.62
2022-08-03T08:00:34.808Z,30.88
2022-08-03T08:03:02.706Z,31.33
2022-08-03T08:05:31.894Z,32.05
2022-08-03T08:07:59.630Z,32.87
2022-08-03T08:10:29.470Z,33.71
2022-08-03T08:12:57.667Z,34.42
2022-08-03T08:15:25.726Z,35.03
2022-08-03T08:17:56.434Z,35.48
2022-08-03T08:20:31.605Z,35.56
2022-08-03T08:23:02.148Z,35.40
2022-08-03T08:25:33.071Z,35.57
2022-08-03T08:28:29.061Z,36.00
2022-08-03T08:30:51.968Z,36.32
2022-08-03T08:33:22.716Z,36.57
2022-08-03T08:35:53.501Z,36.87
2022-08-03T08:38:21.868Z,37.32
2022-08-03T08:40:51.230Z,37.71
2022-08-03T08:43:18.834Z,37.82
2022-08-03T08:45:49.029Z,38.41
2022-08-03T08:48:23.394Z,39.13
2022-08-03T08:50:54.496Z,39.96
2022-08-03T08:53:27.341Z,40.41
2022-08-03T08:56:02.237Z,40.55
2022-08-03T08:58:34.955Z,40.88
2022-08-03T09:01:02.525Z,40.92
2022-08-03T09:03:31.075Z,40.43
2022-08-03T09:06:00.989Z,40.32
2022-08-03T09:08:30.443Z,40.49
2022-08-03T09:10:59.628Z,40.57
2022-08-03T09:13:27.455Z,40.71
2022-08-03T09:16:13.722Z,40.94
2022-08-03T09:18:43.043Z,41.30
2022-08-03T09:21:35.723Z,41.73
2022-08-03T09:24:10.300Z,41.76
2022-08-03T09:26:52.155Z,42.03
2022-08-03T09:29:22.868Z,41.83
2022-08-03T09:32:00.851Z,41.98
2022-08-03T09:34:28.846Z,42.33
2022-08-03T09:37:02.354Z,42.67
2022-08-03T09:39:41.015Z,43.01
2022-08-03T09:42:14.710Z,43.11
2022-08-03T09:44:44.533Z,43.09
2022-08-03T09:47:16.862Z,42.95
2022-08-03T09:50:01.914Z,42.28
2022-08-03T09:52:50.180Z,41.82
2022-08-03T09:56:32.737Z,41.94
2022-08-03T09:58:10.430Z,42.78
2022-08-03T10:00:56.388Z,43.67
2022-08-03T10:03:25.917Z,43.22
2022-08-03T10:05:59.062Z,43.01
2022-08-03T10:08:27.430Z,43.13
2022-08-03T10:10:55.130Z,43.60
2022-08-03T10:13:24.384Z,43.97
2022-08-03T10:16:22.646Z,44.44
2022-08-03T10:18:39.313Z,44.68
2022-08-03T10:21:13.697Z,45.13
2022-08-03T10:23:42.690Z,45.82
2022-08-03T10:26:16.539Z,45.91
2022-08-03T10:28:53.181Z,45.49
2022-08-03T10:31:24.236Z,45.75
2022-08-03T10:33:59.122Z,46.04
2022-08-03T10:36:31.837Z,46.00
2022-08-03T10:39:02.846Z,46.07
2022-08-03T10:41:46.570Z,46.42
2022-08-03T10:44:21.284Z,45.85
2022-08-03T10:46:52.828Z,44.53
2022-08-03T10:49:33.917Z,43.72
2022-08-03T10:52:13.831Z,42.64
2022-08-03T10:55:11.675Z,41.73
2022-08-03T10:57:58.557Z,40.83
2022-08-03T11:00:30.500Z,40.20
2022-08-03T11:03:14.038Z,39.30
2022-08-03T11:05:43.450Z,38.90
2022-08-03T11:08:32.560Z,38.46
2022-08-03T11:11:28.837Z,38.25
2022-08-03T11:14:05.247Z,37.79
2022-08-03T11:16:41.634Z,37.42
2022-08-03T11:19:12.514Z,37.20
2022-08-03T11:21:58.290Z,36.91
2022-08-03T11:24:57.826Z,36.51
2022-08-03T11:27:28.508Z,36.36
2022-08-03T11:30:02.194Z,36.36
2022-08-03T11:32:57.094Z,36.18
2022-08-03T11:35:30.250Z,36.14
2022-08-03T11:38:12.678Z,36.38
2022-08-03T11:40:46.282Z,36.74
2022-08-03T11:43:45.363Z,36.80
2022-08-03T11:46:29.531Z,36.87
2022-08-03T11:49:10.922Z,36.81
2022-08-03T11:51:40.102Z,36.79
2022-08-03T11:54:08.244Z,36.77
2022-08-03T11:56:46.747Z,36.63
2022-08-03T11:59:18.262Z,36.60
2022-08-03T12:01:48.439Z,36.63
2022-08-03T12:04:17.452Z,36.63
2022-08-03T12:06:59.420Z,36.50
2022-08-03T12:09:26.949Z,36.33
2022-08-03T12:12:00.182Z,36.27
2022-08-03T12:14:48.519Z,36.35
2022-08-03T12:17:19.759Z,36.64
2022-08-03T12:19:48.886Z,37.19
2022-08-03T12:22:17.055Z,37.71
2022-08-03T12:24:46.818Z,38.25
2022-08-03T12:27:24.318Z,38.63
2022-08-03T12:29:58.412Z,38.59
2022-08-03T12:32:28.600Z,38.49
2022-08-03T12:35:04.483Z,38.46
2022-08-03T12:37:32.525Z,38.65
2022-08-03T12:40:10.400Z,39.27
2022-08-03T12:42:40.773Z,39.73
2022-08-03T12:45:22.979Z,39.72
2022-08-03T12:47:55.911Z,39.56
2022-08-03T12:50:33.652Z,39.17
2022-08-03T12:53:05.195Z,38.87
2022-08-03T12:55:57.867Z,38.76
2022-08-03T12:58:36.401Z,38.62
2022-08-03T13:01:09.746Z,38.52
2022-08-03T13:03:45.648Z,38.33
2022-08-03T13:06:17.388Z,38.08
2022-08-03T13:08:47.850Z,37.94
2022-08-03T13:11:55.418Z,37.83
2022-08-03T13:14:16.657Z,37.77
2022-08-03T13:16:48.249Z,37.70
2022-08-03T13:19:16.129Z,37.46
2022-08-03T13:22:03.721Z,37.42
2022-08-03T13:24:32.994Z,37.46
2022-08-03T13:27:00.890Z,37.52
2022-08-03T13:29:48.274Z,37.49
2022-08-03T13:32:15.932Z,37.40
2022-08-03T13:34:43.615Z,37.43
2022-08-03T13:37:12.895Z,37.44
2022-08-03T13:39:57.915Z,37.52
2022-08-03T13:42:29.643Z,37.47
2022-08-03T13:44:57.135Z,37.56
2022-08-03T13:47:25.010Z,37.79
2022-08-03T13:49:59.525Z,38.48
2022-08-03T13:52:35.543Z,39.81
2022-08-03T13:55:05.201Z,40.71
2022-08-03T13:58:02.669Z,41.03
2022-08-03T14:00:26.944Z,40.75
2022-08-03T14:03:05.094Z,40.57
2022-08-03T14:05:33.872Z,40.51
2022-08-03T14:08:05.355Z,40.20
2022-08-03T14:10:35.398Z,39.86
2022-08-03T14:13:03.412Z,39.55
2022-08-03T14:15:31.414Z,39.14
2022-08-03T14:17:59.106Z,38.79
2022-08-03T14:20:37.828Z,38.73
2022-08-03T14:23:16.158Z,38.57
2022-08-03T14:25:50.406Z,38.41
2022-08-03T14:28:22.948Z,38.18
2022-08-03T14:30:51.166Z,38.09
2022-08-03T14:33:19.226Z,38.07
2022-08-03T14:35:46.851Z,37.97
2022-08-03T14:38:16.095Z,37.92
2022-08-03T14:40:43.689Z,37.92
2022-08-03T14:43:11.146Z,37.80
2022-08-03T14:45:39.225Z,37.82
2022-08-03T14:50:29.742Z,37.78
2022-08-03T14:50:55.430Z,37.68
2022-08-03T14:53:24.522Z,37.65
2022-08-03T14:55:53.432Z,37.57
2022-08-03T14:58:22.315Z,37.45
2022-08-03T15:00:51.521Z,37.45
2022-08-03T15:03:25.359Z,37.49
2022-08-03T15:05:54.720Z,37.49
2022-08-03T15:08:26.165Z,37.53
2022-08-03T15:10:55.088Z,37.55
2022-08-03T15:13:22.902Z,37.52
2022-08-03T15:15:51.707Z,37.50
2022-08-03T15:18:20.182Z,37.37
2022-08-03T15:20:49.556Z,37.28
2022-08-03T15:23:18.447Z,37.26
2022-08-03T15:26:03.829Z,37.31
2022-08-03T15:28:35.740Z,37.41
2022-08-03T15:31:05.899Z,37.55
2022-08-03T15:33:33.341Z,37.69
2022-08-03T15:36:03.644Z,37.76
2022-08-03T15:38:30.999Z,37.77
2022-08-03T15:40:59.869Z,37.75
2022-08-03T15:43:27.264Z,37.75
2022-08-03T15:46:19.527Z,37.74
2022-08-03T15:48:42.340Z,37.71
2022-08-03T15:51:10.490Z,37.64
2022-08-03T15:53:38.754Z,37.61
2022-08-03T15:56:13.272Z,37.60
2022-08-03T15:59:03.539Z,37.59
2022-08-03T16:01:31.675Z,37.61
2022-08-03T16:03:59.104Z,37.63
2022-08-03T16:06:29.894Z,37.65
2022-08-03T16:09:24.153Z,37.72
2022-08-03T16:11:55.751Z,37.82
2022-08-03T16:14:32.561Z,37.89
2022-08-03T16:17:04.453Z,37.93
2022-08-03T16:19:31.901Z,37.92
2022-08-03T16:21:59.386Z,37.95
2022-08-03T16:24:28.486Z,38.06
2022-08-03T16:26:57.621Z,38.13
2022-08-03T16:29:28.355Z,38.20
2022-08-03T16:31:55.739Z,38.30
2022-08-03T16:34:23.305Z,38.37
2022-08-03T16:36:51.275Z,38.48
2022-08-03T16:39:18.696Z,38.57
2022-08-03T16:41:53.923Z,38.55
2022-08-03T16:44:31.342Z,38.32
2022-08-03T16:46:59.845Z,38.13
2022-08-03T16:49:54.593Z,38.01
2022-08-03T16:52:16.747Z,37.87
2022-08-03T16:54:52.751Z,37.93
2022-08-03T16:57:56.307Z,38.00
2022-08-03T17:00:32.880Z,38.08
2022-08-03T17:03:18.684Z,37.91
2022-08-03T17:05:52.383Z,37.86
2022-08-03T17:08:26.440Z,37.90
2022-08-03T17:10:56.305Z,37.97
2022-08-03T17:13:39.258Z,38.02
2022-08-03T17:16:11.953Z,38.03
2022-08-03T17:18:49.269Z,38.06
2022-08-03T17:21:25.616Z,38.01
2022-08-03T17:24:12.245Z,37.97
2022-08-03T17:26:43.600Z,37.88
2022-08-03T17:29:15.263Z,37.83
2022-08-03T17:31:48.679Z,37.68
2022-08-03T17:34:18.930Z,37.51
2022-08-03T17:37:03.885Z,37.37
2022-08-03T17:39:57.067Z,37.21
2022-08-03T17:42:30.750Z,37.10
2022-08-03T17:45:02.247Z,36.94
2022-08-03T17:47:42.248Z,36.79
2022-08-03T17:50:24.518Z,36.64
2022-08-03T17:53:06.858Z,36.53
2022-08-03T17:55:55.496Z,36.49
2022-08-03T17:58:52.827Z,36.38
2022-08-03T18:02:00.018Z,36.36
2022-08-03T18:04:42.508Z,36.33
2022-08-03T18:07:15.153Z,36.36
2022-08-03T18:10:04.142Z,36.34
2022-08-03T18:12:47.397Z,36.28
2022-08-03T18:15:28.691Z,36.27
2022-08-03T18:18:03.463Z,36.23
2022-08-03T18:20:42.063Z,36.20
2022-08-03T18:23:36.387Z,36.18
2022-08-03T18:26:02.520Z,36.16
2022-08-03T18:28:34.722Z,36.13
2022-08-03T18:31:05.614Z,36.09
2022-08-03T18:34:16.746Z,36.04
2022-08-03T18:36:30.082Z,35.97
2022-08-03T18:39:00.014Z,35.92
2022-08-03T18:41:33.419Z,35.87
2022-08-03T18:44:08.283Z,35.80
2022-08-03T18:47:16.233Z,35.62
2022-08-03T18:49:58.097Z,35.51
2022-08-03T18:52:37.491Z,35.38
2022-08-03T18:55:20.787Z,35.22
2022-08-03T18:58:01.757Z,35.02
2022-08-03T19:00:54.063Z,34.82
2022-08-03T19:03:24.898Z,34.60
2022-08-03T19:06:19.396Z,34.41
2022-08-03T19:08:55.861Z,34.19
2022-08-03T19:12:14.475Z,34.02
2022-08-03T19:14:28.411Z,33.81
2022-08-03T19:17:07.303Z,33.60
2022-08-03T19:19:43.970Z,33.43
2022-08-03T19:22:16.273Z,33.26
2022-08-03T19:24:47.094Z,33.05
2022-08-03T19:27:15.978Z,32.89
2022-08-03T19:29:58.719Z,32.75
2022-08-03T19:32:29.488Z,32.59
2022-08-03T19:34:59.937Z,32.45
2022-08-03T19:37:38.154Z,32.29
2022-08-03T19:40:12.412Z,32.12
2022-08-03T19:42:45.748Z,31.99
2022-08-03T19:46:04.797Z,31.87
2022-08-03T19:48:17.672Z,31.78
2022-08-03T19:50:54.238Z,31.69
2022-08-03T19:53:25.055Z,31.60
2022-08-03T19:56:07.118Z,31.49
2022-08-03T19:58:35.597Z,31.39
2022-08-03T20:01:21.136Z,31.30
2022-08-03T20:03:50.706Z,31.19
2022-08-03T20:06:22.256Z,31.10
2022-08-03T20:11:45.113Z,30.93
2022-08-03T20:14:20.688Z,30.88
2022-08-03T20:16:54.351Z,30.78
2022-08-03T20:19:22.507Z,30.73
2022-08-03T20:21:53.491Z,30.65
2022-08-03T20:24:28.117Z,30.56
2022-08-03T20:27:01.356Z,30.49
2022-08-03T20:30:05.107Z,30.41
2022-08-03T20:32:24.790Z,30.35
2022-08-03T20:34:53.282Z,30.31
2022-08-03T20:37:20.868Z,30.25
2022-08-03T20:39:49.779Z,30.21
2022-08-03T20:42:21.269Z,30.14
2022-08-03T20:45:05.243Z,30.06
2022-08-03T20:47:35.943Z,30.00
2022-08-03T20:50:07.525Z,29.95
2022-08-03T20:52:49.282Z,29.92
2022-08-03T20:55:18.833Z,29.87
2022-08-03T20:58:07.704Z,29.83
2022-08-03T21:00:35.344Z,29.80
2022-08-03T21:03:02.803Z,29.78
2022-08-03T21:05:51.473Z,29.76
2022-08-03T21:08:26.078Z,29.70
2022-08-03T21:10:57.667Z,29.70
2022-08-03T21:13:03.563Z,31.02
2022-08-03T21:13:43.251Z,29.66
2022-08-03T21:16:15.071Z,29.69
2022-08-03T21:18:48.955Z,29.66
2022-08-03T21:21:20.475Z,29.62
2022-08-03T21:23:53.274Z,29.59
2022-08-03T21:26:25.365Z,29.59
2022-08-03T21:28:56.500Z,29.56
2022-08-03T21:31:26.742Z,29.54
2022-08-03T21:33:56.555Z,29.51
2022-08-03T21:36:28.218Z,29.50
2022-08-03T21:38:57.804Z,29.50
2022-08-03T21:41:27.075Z,29.49
2022-08-03T21:43:56.745Z,29.47
2022-08-03T21:46:27.010Z,29.43
2022-08-03T21:50:05.406Z,29.40
2022-08-03T21:51:52.205Z,29.34
2022-08-03T21:54:21.292Z,29.33
2022-08-03T21:56:54.894Z,29.31
2022-08-03T21:59:24.980Z,29.33
2022-08-03T22:01:55.499Z,29.31
2022-08-03T22:04:55.047Z,29.27
2022-08-03T22:07:16.610Z,29.23
2022-08-03T22:09:50.140Z,29.20
2022-08-03T22:12:23.696Z,29.17
2022-08-03T22:15:00.443Z,29.12
2022-08-03T22:17:54.820Z,29.06
2022-08-03T22:20:20.590Z,28.99
2022-08-03T22:22:55.193Z,28.93
2022-08-03T22:25:30.554Z,28.85
2022-08-03T22:28:00.352Z,28.80
2022-08-03T22:30:29.786Z,28.77
2022-08-03T22:32:59.126Z,28.76
2022-08-03T22:35:28.135Z,28.74
2022-08-03T22:37:58.892Z,28.71
2022-08-03T22:40:27.824Z,28.69
2022-08-03T22:42:56.690Z,28.66
2022-08-03T22:45:45.802Z,28.62
2022-08-03T22:48:17.414Z,28.55
2022-08-03T22:50:46.679Z,28.50
2022-08-03T22:53:19.434Z,28.46
2022-08-03T22:55:48.710Z,28.42
2022-08-03T22:58:16.493Z,28.38
2022-08-03T23:00:53.793Z,28.32
2022-08-03T23:04:00.129Z,28.30
2022-08-03T23:06:19.643Z,28.26
2022-08-03T23:08:49.764Z,28.25
2022-08-03T23:11:21.630Z,28.22
2022-08-03T23:13:55.405Z,28.18
2022-08-03T23:16:28.754Z,28.16
2022-08-03T23:18:59.622Z,28.13
2022-08-03T23:21:59.886Z,28.12
2022-08-03T23:24:24.572Z,28.07
2022-08-03T23:26:58.905Z,28.07
2022-08-03T23:29:29.283Z,28.06
2022-08-03T23:31:58.518Z,28.05
2022-08-03T23:34:47.068Z,28.04
2022-08-03T23:37:15.557Z,28.02
2022-08-03T23:39:47.135Z,28.01
2022-08-03T23:42:19.598Z,28.00
2022-08-03T23:44:52.937Z,27.98
2022-08-03T23:47:20.540Z,27.97
2022-08-03T23:49:50.268Z,27.96
2022-08-03T23:52:29.859Z,27.91
2022-08-03T23:55:16.300Z,27.86
2022-08-03T23:58:01.662Z,27.82
